createdAt,value
2023-03-29T00:00:00.599Z,4.12
2023-03-29T00:02:48.964Z,4.09
2023-03-29T00:05:36.525Z,4.12
2023-03-29T00:08:21.983Z,4.05
2023-03-29T00:11:07.544Z,4.09
2023-03-29T00:13:53.186Z,4.08
2023-03-29T00:16:38.864Z,4.04
2023-03-29T00:19:23.627Z,4.07
2023-03-29T00:22:08.511Z,4.04
2023-03-29T00:24:54.392Z,4.10
2023-03-29T00:27:40.164Z,4.03
2023-03-29T00:30:26.366Z,4.03
2023-03-29T00:33:12.441Z,4.03
2023-03-29T00:35:57.470Z,4.03
2023-03-29T00:38:42.618Z,4.03
2023-03-29T00:41:27.665Z,4.06
2023-03-29T00:44:51.042Z,4.03
2023-03-29T00:47:45.438Z,4.00
2023-03-29T00:50:41.521Z,4.02
2023-03-29T00:53:29.248Z,4.00
2023-03-29T00:56:22.668Z,3.96
2023-03-29T00:59:15.932Z,3.93
2023-03-29T01:02:07.063Z,3.98
2023-03-29T01:04:52.291Z,3.97
2023-03-29T01:07:53.512Z,3.96
2023-03-29T01:10:47.822Z,4.06
2023-03-29T01:14:08.384Z,4.06
2023-03-29T01:16:53.247Z,4.06
2023-03-29T01:19:43.934Z,4.01
2023-03-29T01:22:47.209Z,4.12
2023-03-29T01:25:55.402Z,4.06
2023-03-29T01:28:46.698Z,4.04
2023-03-29T01:31:37.323Z,4.04
2023-03-29T01:34:48.140Z,4.13
2023-03-29T01:37:49.310Z,4.15
2023-03-29T01:40:34.661Z,4.10
2023-03-29T01:43:26.625Z,4.12
2023-03-29T01:46:21.567Z,4.12
2023-03-29T01:49:21.734Z,4.18
2023-03-29T01:52:13.613Z,4.26
2023-03-29T01:55:07.123Z,4.27
2023-03-29T01:57:55.507Z,4.17
2023-03-29T02:00:42.363Z,4.24
2023-03-29T02:03:30.770Z,4.19
2023-03-29T02:06:20.482Z,4.28
2023-03-29T02:09:07.017Z,4.08
2023-03-29T02:11:53.656Z,4.19
2023-03-29T02:14:38.868Z,4.73
2023-03-29T02:17:26.418Z,4.90
2023-03-29T02:20:26.051Z,4.52
2023-03-29T02:23:21.116Z,4.25
2023-03-29T02:26:07.012Z,3.99
2023-03-29T02:28:52.968Z,3.82
2023-03-29T02:32:05.929Z,3.84
2023-03-29T02:34:58.812Z,3.69
2023-03-29T02:37:49.986Z,3.48
2023-03-29T02:40:37.514Z,3.38
2023-03-29T02:43:25.882Z,3.38
2023-03-29T02:46:13.694Z,3.37
2023-03-29T02:48:59.730Z,3.52
2023-03-29T02:51:47.444Z,3.33
2023-03-29T02:54:32.593Z,3.42
2023-03-29T02:57:18.129Z,3.28
2023-03-29T03:00:05.253Z,3.20
2023-03-29T03:02:51.111Z,3.28
2023-03-29T03:05:36.089Z,3.21
2023-03-29T03:08:21.485Z,3.15
2023-03-29T03:11:07.040Z,3.25
2023-03-29T03:13:51.976Z,3.36
2023-03-29T03:16:37.596Z,3.25
2023-03-29T03:19:22.579Z,3.27
2023-03-29T03:22:08.111Z,3.69
2023-03-29T03:24:53.248Z,4.11
2023-03-29T03:27:39.823Z,3.78
2023-03-29T03:30:25.399Z,3.49
2023-03-29T03:33:11.406Z,4.26
2023-03-29T03:36:04.842Z,4.08
2023-03-29T03:38:50.899Z,3.77
2023-03-29T03:41:36.369Z,3.80
2023-03-29T03:44:21.459Z,3.75
2023-03-29T03:47:06.643Z,3.67
2023-03-29T03:49:51.979Z,3.64
2023-03-29T03:52:37.372Z,3.67
2023-03-29T03:55:22.725Z,3.65
2023-03-29T03:58:08.017Z,3.74
2023-03-29T04:00:52.824Z,3.63
2023-03-29T04:03:39.530Z,3.65
2023-03-29T04:06:25.311Z,3.77
2023-03-29T04:09:10.725Z,3.78
2023-03-29T04:11:56.615Z,3.84
2023-03-29T04:14:41.802Z,3.83
2023-03-29T04:17:27.148Z,3.85
2023-03-29T04:20:12.698Z,3.76
2023-03-29T04:22:58.116Z,3.71
2023-03-29T04:25:43.305Z,3.74
2023-03-29T04:28:28.494Z,3.79
2023-03-29T04:31:14.653Z,3.76
2023-03-29T04:34:00.402Z,3.73
2023-03-29T04:36:46.473Z,3.82
2023-03-29T04:39:33.853Z,3.76
2023-03-29T04:42:19.052Z,3.82
2023-03-29T04:45:04.816Z,3.80
2023-03-29T04:47:50.172Z,3.83
2023-03-29T04:50:36.479Z,3.73
2023-03-29T04:53:22.131Z,3.60
2023-03-29T04:56:07.925Z,3.63
2023-03-29T04:58:52.946Z,3.74
2023-03-29T05:01:38.291Z,3.67
2023-03-29T05:04:24.500Z,3.80
2023-03-29T05:07:09.384Z,3.87
2023-03-29T05:09:54.193Z,3.83
2023-03-29T05:12:39.320Z,3.81
2023-03-29T05:15:24.240Z,3.82
2023-03-29T05:18:09.512Z,3.83
2023-03-29T05:20:55.501Z,3.92
2023-03-29T05:23:40.672Z,3.91
2023-03-29T05:26:26.970Z,3.84
2023-03-29T05:29:12.217Z,3.88
2023-03-29T05:31:57.321Z,3.90
2023-03-29T05:34:42.096Z,3.86
2023-03-29T05:37:26.957Z,3.87
2023-03-29T05:40:13.015Z,3.88
2023-03-29T05:42:59.563Z,3.98
2023-03-29T05:45:45.083Z,3.95
2023-03-29T05:48:30.066Z,4.00
2023-03-29T05:51:15.376Z,4.02
2023-03-29T05:54:00.081Z,4.02
2023-03-29T05:56:44.904Z,4.04
2023-03-29T05:59:29.906Z,4.10
2023-03-29T06:02:16.337Z,4.10
2023-03-29T06:05:01.390Z,4.18
2023-03-29T06:07:49.650Z,4.17
2023-03-29T06:10:36.842Z,4.13
2023-03-29T06:13:22.847Z,4.15
2023-03-29T06:16:12.885Z,4.20
2023-03-29T06:18:58.453Z,4.25
2023-03-29T06:21:43.437Z,4.33
2023-03-29T06:24:28.705Z,4.35
2023-03-29T06:27:14.303Z,4.34
2023-03-29T06:30:00.491Z,4.46
2023-03-29T06:32:46.285Z,4.44
2023-03-29T06:35:31.642Z,4.49
2023-03-29T06:38:19.423Z,4.61
2023-03-29T06:41:05.860Z,4.58
2023-03-29T06:43:51.193Z,4.64
2023-03-29T06:46:37.569Z,4.66
2023-03-29T06:49:24.211Z,4.67
2023-03-29T06:52:10.051Z,4.68
2023-03-29T06:54:55.647Z,4.77
2023-03-29T06:57:40.570Z,4.88
2023-03-29T07:00:28.379Z,4.91
2023-03-29T07:03:21.036Z,4.93
2023-03-29T07:06:10.941Z,4.89
2023-03-29T07:08:59.939Z,5.05
2023-03-29T07:11:46.286Z,5.07
2023-03-29T07:14:31.545Z,5.04
2023-03-29T07:17:16.847Z,5.06
2023-03-29T07:20:02.458Z,5.18
2023-03-29T07:22:48.069Z,5.24
2023-03-29T07:25:34.394Z,5.27
2023-03-29T07:28:19.968Z,5.22
2023-03-29T07:31:11.259Z,5.42
2023-03-29T07:33:56.747Z,5.54
2023-03-29T07:36:43.988Z,5.58
2023-03-29T07:39:28.820Z,5.63
2023-03-29T07:42:14.184Z,5.68
2023-03-29T07:45:00.329Z,5.78
2023-03-29T07:47:49.090Z,5.99
2023-03-29T07:50:34.909Z,6.05
2023-03-29T07:53:20.091Z,6.11
2023-03-29T07:56:06.189Z,6.20
2023-03-29T07:58:51.619Z,6.37
2023-03-29T08:01:36.871Z,6.35
2023-03-29T08:04:22.577Z,6.42
2023-03-29T08:07:08.117Z,6.54
2023-03-29T08:09:53.104Z,6.61
2023-03-29T08:12:38.559Z,6.64
2023-03-29T08:15:23.446Z,6.73
2023-03-29T08:18:08.606Z,6.85
2023-03-29T08:20:53.347Z,6.89
2023-03-29T08:23:39.092Z,6.87
2023-03-29T08:26:23.937Z,6.83
2023-03-29T08:29:09.539Z,7.03
2023-03-29T08:31:56.541Z,7.10
2023-03-29T08:34:41.440Z,7.13
2023-03-29T08:37:28.685Z,7.18
2023-03-29T08:40:21.416Z,7.20
2023-03-29T08:43:46.694Z,7.19
2023-03-29T08:46:44.030Z,7.28
2023-03-29T08:49:30.319Z,7.47
2023-03-29T08:52:56.905Z,7.59
2023-03-29T08:55:48.859Z,7.77
2023-03-29T08:58:35.914Z,7.87
2023-03-29T09:01:22.888Z,7.82
2023-03-29T09:04:13.173Z,7.79
2023-03-29T09:06:58.519Z,7.76
2023-03-29T09:09:44.589Z,7.82
2023-03-29T09:12:46.452Z,7.79
2023-03-29T09:16:01.976Z,7.82
2023-03-29T09:19:14.660Z,7.87
2023-03-29T09:22:40.204Z,7.95
2023-03-29T09:25:53.353Z,8.12
2023-03-29T09:28:51.968Z,8.19
2023-03-29T09:31:42.615Z,8.09
2023-03-29T09:34:45.517Z,8.18
2023-03-29T09:37:35.514Z,8.26
2023-03-29T09:40:30.048Z,8.40
2023-03-29T09:43:26.647Z,8.65
2023-03-29T09:46:43.233Z,8.65
2023-03-29T09:49:41.981Z,8.52
2023-03-29T09:52:27.837Z,8.61
2023-03-29T09:55:26.307Z,8.78
2023-03-29T09:58:18.319Z,9.04
2023-03-29T10:01:09.913Z,8.81
2023-03-29T10:03:58.987Z,9.17
2023-03-29T10:06:50.152Z,9.20
2023-03-29T10:09:38.059Z,8.99
2023-03-29T10:12:23.225Z,9.00
2023-03-29T10:15:26.687Z,9.20
2023-03-29T10:18:15.271Z,9.39
2023-03-29T10:21:03.966Z,9.43
2023-03-29T10:23:58.529Z,9.42
2023-03-29T10:26:43.496Z,9.82
2023-03-29T10:29:37.966Z,9.87
2023-03-29T10:32:25.433Z,10.07
2023-03-29T10:35:32.156Z,10.11
2023-03-29T10:38:21.772Z,10.17
2023-03-29T10:41:12.559Z,10.10
2023-03-29T10:43:58.993Z,9.85
2023-03-29T10:46:44.164Z,9.81
2023-03-29T10:49:29.750Z,9.86
2023-03-29T10:52:16.442Z,9.84
2023-03-29T10:55:02.817Z,9.59
2023-03-29T10:57:54.414Z,9.50
2023-03-29T11:00:57.887Z,9.37
2023-03-29T11:04:26.219Z,9.34
2023-03-29T11:07:29.855Z,9.36
2023-03-29T11:10:36.962Z,9.62
2023-03-29T11:13:40.271Z,9.94
2023-03-29T11:16:55.380Z,9.89
2023-03-29T11:20:17.775Z,9.85
2023-03-29T11:23:37.417Z,9.65
2023-03-29T11:26:29.423Z,9.76
2023-03-29T11:29:26.983Z,9.86
2023-03-29T11:32:25.749Z,10.37
2023-03-29T11:35:25.933Z,10.56
2023-03-29T11:38:16.844Z,10.72
2023-03-29T11:41:24.421Z,10.46
2023-03-29T11:44:17.474Z,10.55
2023-03-29T11:47:10.782Z,11.02
2023-03-29T11:50:06.114Z,11.10
2023-03-29T11:53:02.315Z,11.21
2023-03-29T11:55:50.424Z,11.18
2023-03-29T11:58:39.934Z,11.20
2023-03-29T12:01:34.599Z,11.10
2023-03-29T12:04:36.150Z,10.89
2023-03-29T12:07:50.524Z,10.66
2023-03-29T12:11:17.284Z,10.62
2023-03-29T12:14:09.758Z,10.85
2023-03-29T12:17:04.574Z,10.84
2023-03-29T12:20:02.569Z,10.62
2023-03-29T12:22:50.872Z,10.76
2023-03-29T12:25:58.817Z,10.85
2023-03-29T12:29:10.347Z,10.72
2023-03-29T12:32:21.887Z,10.37
2023-03-29T12:35:40.145Z,10.46
2023-03-29T12:38:30.555Z,10.55
2023-03-29T12:41:24.271Z,10.58
2023-03-29T12:44:15.043Z,10.74
2023-03-29T12:47:01.735Z,10.73
2023-03-29T12:49:47.512Z,10.84
2023-03-29T12:52:36.914Z,10.84
2023-03-29T12:55:52.732Z,10.94
2023-03-29T12:58:56.446Z,11.07
2023-03-29T13:01:57.724Z,11.11
2023-03-29T13:04:43.143Z,11.41
2023-03-29T13:07:32.445Z,11.51
2023-03-29T13:10:36.721Z,11.57
2023-03-29T13:13:29.588Z,11.84
2023-03-29T13:16:17.277Z,11.74
2023-03-29T13:19:46.164Z,11.86
2023-03-29T13:23:01.964Z,12.13
2023-03-29T13:26:03.580Z,12.18
2023-03-29T13:29:14.091Z,12.34
2023-03-29T13:32:38.508Z,12.89
2023-03-29T13:36:17.782Z,13.24
2023-03-29T13:39:07.056Z,13.48
2023-03-29T13:41:54.190Z,13.68
2023-03-29T13:44:46.023Z,13.92
2023-03-29T13:47:31.066Z,14.16
2023-03-29T13:50:29.435Z,13.53
2023-03-29T13:53:26.404Z,13.45
2023-03-29T13:56:23.359Z,13.22
2023-03-29T13:59:19.597Z,12.88
2023-03-29T14:02:06.916Z,12.77
2023-03-29T14:04:52.417Z,12.74
2023-03-29T14:07:41.430Z,12.72
2023-03-29T14:10:40.114Z,13.01
2023-03-29T14:13:25.804Z,12.76
2023-03-29T14:16:13.036Z,12.58
2023-03-29T14:19:21.641Z,12.64
2023-03-29T14:22:15.381Z,12.49
2023-03-29T14:25:12.934Z,12.37
2023-03-29T14:27:58.130Z,12.31
2023-03-29T14:30:47.073Z,12.14
2023-03-29T14:33:37.882Z,12.17
2023-03-29T14:36:25.408Z,12.12
2023-03-29T14:39:15.869Z,12.03
2023-03-29T14:42:02.045Z,11.99
2023-03-29T14:44:50.073Z,11.96
2023-03-29T14:47:37.069Z,11.81
2023-03-29T14:50:31.462Z,11.61
2023-03-29T14:53:20.615Z,11.63
2023-03-29T14:56:07.529Z,11.68
2023-03-29T14:58:57.022Z,11.73
2023-03-29T15:01:45.058Z,11.69
2023-03-29T15:04:36.004Z,11.72
2023-03-29T15:07:23.596Z,11.66
2023-03-29T15:10:18.718Z,11.49
2023-03-29T15:13:05.011Z,11.42
2023-03-29T15:16:00.932Z,11.40
2023-03-29T15:18:48.927Z,11.44
2023-03-29T15:21:35.618Z,11.40
2023-03-29T15:24:28.187Z,11.35
2023-03-29T15:27:19.485Z,11.37
2023-03-29T15:30:12.938Z,11.28
2023-03-29T15:33:14.347Z,11.29
2023-03-29T15:36:03.080Z,11.25
2023-03-29T15:38:49.550Z,11.28
2023-03-29T15:41:34.319Z,11.35
2023-03-29T15:44:26.642Z,11.30
2023-03-29T15:47:12.528Z,11.15
2023-03-29T15:49:58.175Z,11.15
2023-03-29T15:52:43.022Z,11.07
2023-03-29T15:55:29.978Z,11.04
2023-03-29T15:58:16.890Z,10.91
2023-03-29T16:01:34.716Z,10.94
2023-03-29T16:04:20.938Z,10.98
2023-03-29T16:07:11.218Z,10.97
2023-03-29T16:09:56.548Z,10.98
2023-03-29T16:12:41.722Z,10.92
2023-03-29T16:15:27.147Z,10.94
2023-03-29T16:18:12.249Z,10.93
2023-03-29T16:20:57.779Z,10.77
2023-03-29T16:23:44.499Z,10.75
2023-03-29T16:26:31.702Z,10.78
2023-03-29T16:29:17.979Z,10.76
2023-03-29T16:32:06.244Z,10.80
2023-03-29T16:34:53.564Z,10.75
2023-03-29T16:37:39.739Z,10.72
2023-03-29T16:40:24.986Z,10.72
2023-03-29T16:43:15.913Z,10.64
2023-03-29T16:46:01.543Z,10.81
2023-03-29T16:48:47.038Z,10.73
2023-03-29T16:51:32.772Z,10.59
2023-03-29T16:54:19.937Z,10.57
2023-03-29T16:57:07.618Z,10.58
2023-03-29T16:59:53.385Z,10.54
2023-03-29T17:02:38.778Z,10.53
2023-03-29T17:05:25.170Z,10.55
2023-03-29T17:08:10.517Z,10.52
2023-03-29T17:10:55.768Z,10.56
2023-03-29T17:13:41.445Z,10.54
2023-03-29T17:16:30.695Z,10.52
2023-03-29T17:19:15.942Z,10.50
2023-03-29T17:22:01.856Z,10.51
2023-03-29T17:24:46.985Z,10.43
2023-03-29T17:27:32.148Z,10.46
2023-03-29T17:30:20.001Z,10.40
2023-03-29T17:33:06.488Z,10.41
2023-03-29T17:35:53.641Z,10.41
2023-03-29T17:38:38.922Z,10.44
2023-03-29T17:41:24.966Z,10.41
2023-03-29T17:44:11.062Z,10.46
2023-03-29T17:46:56.199Z,10.30
2023-03-29T17:49:41.365Z,10.34
2023-03-29T17:52:26.967Z,10.32
2023-03-29T17:55:13.869Z,10.32
2023-03-29T17:57:59.619Z,10.28
2023-03-29T18:00:52.408Z,10.32
2023-03-29T18:03:39.801Z,10.19
2023-03-29T18:06:25.917Z,10.16
2023-03-29T18:09:13.980Z,10.17
2023-03-29T18:12:00.106Z,10.19
2023-03-29T18:14:46.520Z,10.13
2023-03-29T18:17:37.639Z,10.06
2023-03-29T18:20:25.532Z,10.11
2023-03-29T18:23:10.246Z,10.09
2023-03-29T18:26:05.890Z,10.06
2023-03-29T18:28:53.702Z,10.06
2023-03-29T18:31:39.092Z,9.99
2023-03-29T18:34:24.791Z,9.92
2023-03-29T18:37:14.470Z,9.88
2023-03-29T18:40:01.814Z,9.90
2023-03-29T18:42:49.678Z,9.89
2023-03-29T18:45:37.270Z,9.86
2023-03-29T18:48:24.486Z,9.93
2023-03-29T18:51:11.466Z,9.90
2023-03-29T18:54:01.051Z,9.94
2023-03-29T18:56:49.043Z,9.84
2023-03-29T18:59:38.062Z,9.93
2023-03-29T19:02:23.894Z,9.85
2023-03-29T19:05:10.383Z,9.94
2023-03-29T19:07:56.261Z,9.90
2023-03-29T19:10:41.763Z,9.93
2023-03-29T19:13:27.498Z,9.93
2023-03-29T19:16:12.662Z,9.93
2023-03-29T19:18:58.005Z,9.93
2023-03-29T19:21:44.467Z,9.94
2023-03-29T19:24:32.287Z,9.93
2023-03-29T19:27:17.302Z,9.91
2023-03-29T19:30:05.692Z,9.97
2023-03-29T19:32:51.822Z,9.83
2023-03-29T19:35:36.903Z,9.83
2023-03-29T19:38:22.409Z,9.76
2023-03-29T19:41:08.251Z,9.70
2023-03-29T19:43:53.178Z,9.70
2023-03-29T19:46:38.630Z,9.70
2023-03-29T19:49:24.022Z,9.62
2023-03-29T19:52:11.858Z,9.58
2023-03-29T19:54:57.225Z,9.56
2023-03-29T19:57:42.454Z,9.49
2023-03-29T20:00:29.583Z,9.42
2023-03-29T20:03:15.554Z,9.33
2023-03-29T20:06:02.015Z,9.33
2023-03-29T20:08:47.486Z,9.35
2023-03-29T20:11:33.206Z,9.32
2023-03-29T20:14:21.369Z,9.41
2023-03-29T20:17:08.062Z,9.39
2023-03-29T20:19:54.095Z,9.36
2023-03-29T20:22:42.704Z,9.35
2023-03-29T20:25:28.613Z,9.34
2023-03-29T20:28:13.817Z,9.38
2023-03-29T20:31:04.950Z,9.44
2023-03-29T20:33:50.172Z,9.31
2023-03-29T20:36:38.669Z,9.35
2023-03-29T20:39:31.176Z,9.38
2023-03-29T20:42:17.223Z,9.44
2023-03-29T20:45:02.385Z,9.36
2023-03-29T20:47:58.663Z,9.39
2023-03-29T20:50:47.386Z,9.44
2023-03-29T20:53:34.537Z,9.34
2023-03-29T20:56:20.697Z,9.34
2023-03-29T20:59:07.496Z,9.29
2023-03-29T21:01:52.322Z,9.34
2023-03-29T21:04:37.775Z,9.26
2023-03-29T21:07:22.973Z,9.21
2023-03-29T21:10:08.092Z,9.12
2023-03-29T21:13:00.740Z,9.12
2023-03-29T21:15:46.990Z,9.20
2023-03-29T21:18:31.632Z,9.28
2023-03-29T21:21:16.486Z,9.29
2023-03-29T21:24:02.758Z,9.21
2023-03-29T21:26:47.661Z,9.17
2023-03-29T21:29:32.604Z,9.21
2023-03-29T21:32:17.568Z,9.13
2023-03-29T21:35:03.168Z,9.16
2023-03-29T21:37:49.876Z,9.10
2023-03-29T21:40:38.067Z,9.16
2023-03-29T21:43:23.293Z,9.20
2023-03-29T21:46:09.807Z,9.20
2023-03-29T21:48:56.646Z,9.20
2023-03-29T21:51:41.465Z,9.26
2023-03-29T21:54:26.716Z,9.17
2023-03-29T21:57:11.924Z,9.20
2023-03-29T21:59:57.207Z,9.20
2023-03-29T22:02:42.456Z,9.17
2023-03-29T22:05:27.784Z,9.15
2023-03-29T22:08:12.624Z,9.10
2023-03-29T22:10:57.717Z,9.13
2023-03-29T22:13:43.634Z,9.09
2023-03-29T22:16:28.615Z,9.04
2023-03-29T22:19:13.393Z,9.06
2023-03-29T22:22:01.247Z,9.15
2023-03-29T22:24:46.685Z,9.17
2023-03-29T22:27:32.279Z,9.13
2023-03-29T22:30:17.677Z,9.12
2023-03-29T22:33:02.833Z,9.09
2023-03-29T22:35:50.918Z,9.13
2023-03-29T22:38:36.228Z,9.11
2023-03-29T22:41:24.010Z,9.11
2023-03-29T22:44:09.600Z,9.04
2023-03-29T22:46:55.964Z,9.02
2023-03-29T22:49:41.631Z,9.05
2023-03-29T22:52:26.802Z,9.00
2023-03-29T22:55:12.553Z,8.90
2023-03-29T22:57:57.599Z,8.89
2023-03-29T23:00:43.508Z,8.85
2023-03-29T23:03:28.343Z,8.84
2023-03-29T23:06:13.300Z,8.87
2023-03-29T23:08:58.441Z,8.88
2023-03-29T23:11:43.878Z,8.94
2023-03-29T23:14:29.195Z,8.98
2023-03-29T23:17:19.537Z,8.97
2023-03-29T23:20:05.987Z,9.04
2023-03-29T23:22:51.310Z,8.94
2023-03-29T23:25:36.337Z,8.95
2023-03-29T23:28:24.702Z,8.98
2023-03-29T23:31:13.220Z,8.93
2023-03-29T23:33:59.299Z,8.84
2023-03-29T23:36:44.138Z,8.83
2023-03-29T23:39:29.485Z,8.91
2023-03-29T23:42:14.657Z,8.96
2023-03-29T23:45:00.026Z,8.96
2023-03-29T23:47:45.554Z,8.99
2023-03-29T23:50:30.281Z,9.00
2023-03-29T23:53:16.129Z,8.99
2023-03-29T23:56:03.799Z,8.91
2023-03-29T23:58:49.146Z,8.92
